createdAt,value
2023-05-03T00:00:23.785Z,48.13
2023-05-03T00:02:53.922Z,48.14
2023-05-03T00:05:21.538Z,48.23
2023-05-03T00:07:49.733Z,48.20
2023-05-03T00:10:17.389Z,48.12
2023-05-03T00:12:45.037Z,48.23
2023-05-03T00:15:12.607Z,48.08
2023-05-03T00:17:40.170Z,48.23
2023-05-03T00:20:08.435Z,48.50
2023-05-03T00:22:36.588Z,48.16
2023-05-03T00:25:04.786Z,48.22
2023-05-03T00:27:32.395Z,48.46
2023-05-03T00:30:00.283Z,48.53
2023-05-03T00:32:28.411Z,48.53
2023-05-03T00:34:57.310Z,48.69
2023-05-03T00:37:25.989Z,48.70
2023-05-03T00:39:53.810Z,48.43
2023-05-03T00:42:21.348Z,48.56
2023-05-03T00:44:48.888Z,48.42
2023-05-03T00:47:17.157Z,48.35
2023-05-03T00:49:45.289Z,48.84
2023-05-03T00:52:13.514Z,48.80
2023-05-03T00:54:41.326Z,48.63
2023-05-03T00:57:08.885Z,48.80
2023-05-03T00:59:37.754Z,48.99
2023-05-03T01:02:05.751Z,49.09
2023-05-03T01:04:33.348Z,49.18
2023-05-03T01:07:23.623Z,49.05
2023-05-03T01:10:01.985Z,48.93
2023-05-03T01:12:53.993Z,48.92
2023-05-03T01:15:44.128Z,49.09
2023-05-03T01:18:18.506Z,49.26
2023-05-03T01:20:49.923Z,49.25
2023-05-03T01:24:04.189Z,48.97
2023-05-03T01:26:33.285Z,49.19
2023-05-03T01:29:00.837Z,49.37
2023-05-03T01:31:53.393Z,49.60
2023-05-03T01:35:08.840Z,49.70
2023-05-03T01:37:37.859Z,49.57
2023-05-03T01:40:08.788Z,49.74
2023-05-03T01:42:38.572Z,49.71
2023-05-03T01:45:07.135Z,49.82
2023-05-03T01:47:35.092Z,50.04
2023-05-03T01:50:02.970Z,50.02
2023-05-03T01:52:31.174Z,49.86
2023-05-03T01:54:59.993Z,50.11
2023-05-03T01:57:27.582Z,49.97
2023-05-03T01:59:55.175Z,50.42
2023-05-03T02:02:22.694Z,50.38
2023-05-03T02:04:50.650Z,50.66
2023-05-03T02:07:19.233Z,50.99
2023-05-03T02:09:46.850Z,50.58
2023-05-03T02:12:14.319Z,50.66
2023-05-03T02:14:41.946Z,50.99
2023-05-03T02:17:10.444Z,50.73
2023-05-03T02:19:38.624Z,50.67
2023-05-03T02:22:07.590Z,50.72
2023-05-03T02:24:36.168Z,50.96
2023-05-03T02:27:04.734Z,50.49
2023-05-03T02:29:33.366Z,50.65
2023-05-03T02:32:05.420Z,50.52
2023-05-03T02:34:33.471Z,50.80
2023-05-03T02:37:01.131Z,50.92
2023-05-03T02:39:30.417Z,50.55
2023-05-03T02:41:58.583Z,50.75
2023-05-03T02:44:26.793Z,50.73
2023-05-03T02:46:54.858Z,50.72
2023-05-03T02:49:23.172Z,50.77
2023-05-03T02:51:52.875Z,50.72
2023-05-03T02:54:20.407Z,50.84
2023-05-03T02:56:47.958Z,50.83
2023-05-03T02:59:15.610Z,50.77
2023-05-03T03:01:43.298Z,50.80
2023-05-03T03:04:11.261Z,50.75
2023-05-03T03:06:38.805Z,50.76
2023-05-03T03:09:06.409Z,50.96
2023-05-03T03:11:35.984Z,51.12
2023-05-03T03:14:03.476Z,50.91
2023-05-03T03:16:31.278Z,51.12
2023-05-03T03:18:58.958Z,51.21
2023-05-03T03:21:29.550Z,51.16
2023-05-03T03:23:57.142Z,50.88
2023-05-03T03:26:26.148Z,51.21
2023-05-03T03:28:53.739Z,51.19
2023-05-03T03:31:23.038Z,51.05
2023-05-03T03:33:51.082Z,51.25
2023-05-03T03:36:21.264Z,51.22
2023-05-03T03:38:49.941Z,50.92
2023-05-03T03:41:19.291Z,51.13
2023-05-03T03:43:47.451Z,51.20
2023-05-03T03:46:19.070Z,51.16
2023-05-03T03:48:50.987Z,51.50
2023-05-03T03:51:18.574Z,51.41
2023-05-03T03:53:48.180Z,51.67
2023-05-03T03:56:16.516Z,51.68
2023-05-03T03:58:44.092Z,51.91
2023-05-03T04:01:12.901Z,51.81
2023-05-03T04:03:40.762Z,51.59
2023-05-03T04:06:08.646Z,51.84
2023-05-03T04:08:37.149Z,51.93
2023-05-03T04:11:10.380Z,51.93
2023-05-03T04:13:39.743Z,52.26
2023-05-03T04:16:08.132Z,51.98
2023-05-03T04:18:36.666Z,52.30
2023-05-03T04:21:05.343Z,52.07
2023-05-03T04:23:32.987Z,52.11
2023-05-03T04:26:02.618Z,52.57
2023-05-03T04:28:34.699Z,52.29
2023-05-03T04:31:02.406Z,52.25
2023-05-03T04:33:31.641Z,52.77
2023-05-03T04:36:04.455Z,52.77
2023-05-03T04:38:32.732Z,52.53
2023-05-03T04:41:02.742Z,52.36
2023-05-03T04:43:32.909Z,52.56
2023-05-03T04:46:00.843Z,52.51
2023-05-03T04:48:28.413Z,53.09
2023-05-03T04:50:55.923Z,52.99
2023-05-03T04:53:24.544Z,52.58
2023-05-03T04:56:01.288Z,52.97
2023-05-03T04:58:31.027Z,52.91
2023-05-03T05:00:59.172Z,52.85
2023-05-03T05:03:31.481Z,53.31
2023-05-03T05:06:01.623Z,52.83
2023-05-03T05:08:30.718Z,52.84
2023-05-03T05:10:58.949Z,52.71
2023-05-03T05:13:31.755Z,52.87
2023-05-03T05:15:59.265Z,52.78
2023-05-03T05:18:26.821Z,52.97
2023-05-03T05:20:56.437Z,52.75
2023-05-03T05:23:26.149Z,52.78
2023-05-03T05:25:54.047Z,52.62
2023-05-03T05:28:21.938Z,52.91
2023-05-03T05:30:49.447Z,52.71
2023-05-03T05:33:19.077Z,52.60
2023-05-03T05:35:49.051Z,52.88
2023-05-03T05:38:18.644Z,53.00
2023-05-03T05:40:46.154Z,52.69
2023-05-03T05:43:13.684Z,52.65
2023-05-03T05:45:44.146Z,52.97
2023-05-03T05:48:12.208Z,52.92
2023-05-03T05:50:41.057Z,52.94
2023-05-03T05:53:11.809Z,52.88
2023-05-03T05:55:44.661Z,52.72
2023-05-03T05:58:13.735Z,52.68
2023-05-03T06:00:48.887Z,52.84
2023-05-03T06:03:17.065Z,52.44
2023-05-03T06:05:45.484Z,52.83
2023-05-03T06:08:13.027Z,52.65
2023-05-03T06:10:40.821Z,52.74
2023-05-03T06:13:08.370Z,52.63
2023-05-03T06:15:36.064Z,52.48
2023-05-03T06:18:04.604Z,52.72
2023-05-03T06:20:32.446Z,52.80
2023-05-03T06:23:00.428Z,52.97
2023-05-03T06:25:27.952Z,52.66
2023-05-03T06:27:55.482Z,52.65
2023-05-03T06:30:28.288Z,52.47
2023-05-03T06:32:59.714Z,52.53
2023-05-03T06:35:28.470Z,52.50
2023-05-03T06:37:55.993Z,52.39
2023-05-03T06:40:25.827Z,52.55
2023-05-03T06:42:53.327Z,52.48
2023-05-03T06:45:35.261Z,52.46
2023-05-03T06:48:02.978Z,52.60
2023-05-03T06:50:30.732Z,52.53
2023-05-03T06:52:58.233Z,52.27
2023-05-03T06:55:25.788Z,52.39
2023-05-03T06:57:53.703Z,52.13
2023-05-03T07:00:23.186Z,52.44
2023-05-03T07:02:50.806Z,52.18
2023-05-03T07:05:18.414Z,52.20
2023-05-03T07:07:46.215Z,52.30
2023-05-03T07:10:13.743Z,51.90
2023-05-03T07:12:41.337Z,52.05
2023-05-03T07:15:10.085Z,51.47
2023-05-03T07:17:37.635Z,51.70
2023-05-03T07:20:06.635Z,51.69
2023-05-03T07:22:36.063Z,51.43
2023-05-03T07:25:04.879Z,51.23
2023-05-03T07:27:32.470Z,50.85
2023-05-03T07:30:00.503Z,50.93
2023-05-03T07:32:28.122Z,50.78
2023-05-03T07:34:55.662Z,50.94
2023-05-03T07:37:23.311Z,50.53
2023-05-03T07:39:50.963Z,50.39
2023-05-03T07:42:18.743Z,50.36
2023-05-03T07:44:46.304Z,50.21
2023-05-03T07:47:13.790Z,50.28
2023-05-03T07:49:41.349Z,50.17
2023-05-03T07:52:09.847Z,49.89
2023-05-03T07:54:37.399Z,49.63
2023-05-03T07:57:06.162Z,49.57
2023-05-03T07:59:33.640Z,49.44
2023-05-03T08:02:01.854Z,49.29
2023-05-03T08:04:29.798Z,48.94
2023-05-03T08:07:04.162Z,49.00
2023-05-03T08:09:31.650Z,48.79
2023-05-03T08:11:59.201Z,49.12
2023-05-03T08:14:27.594Z,48.70
2023-05-03T08:16:55.424Z,48.63
2023-05-03T08:19:23.092Z,48.77
2023-05-03T08:21:54.129Z,48.55
2023-05-03T08:24:23.044Z,48.52
2023-05-03T08:26:50.931Z,48.32
2023-05-03T08:29:18.581Z,48.45
2023-05-03T08:31:46.462Z,48.30
2023-05-03T08:34:14.009Z,48.09
2023-05-03T08:36:41.538Z,48.26
2023-05-03T08:39:10.290Z,48.36
2023-05-03T08:41:40.248Z,48.14
2023-05-03T08:44:11.329Z,48.11
2023-05-03T08:46:39.009Z,48.25
2023-05-03T08:49:07.533Z,48.42
2023-05-03T08:51:40.276Z,48.12
2023-05-03T08:54:08.596Z,47.71
2023-05-03T08:56:44.013Z,47.86
2023-05-03T08:59:11.892Z,48.28
2023-05-03T09:01:41.624Z,48.28
2023-05-03T09:04:11.333Z,48.28
2023-05-03T09:06:39.623Z,47.93
2023-05-03T09:09:08.410Z,47.87
2023-05-03T09:11:38.903Z,47.87
2023-05-03T09:14:16.379Z,47.81
2023-05-03T09:16:46.523Z,47.55
2023-05-03T09:19:15.712Z,47.53
2023-05-03T09:21:49.084Z,47.54
2023-05-03T09:24:22.016Z,47.46
2023-05-03T09:26:51.945Z,46.87
2023-05-03T09:29:35.920Z,46.75
2023-05-03T09:32:06.246Z,46.37
2023-05-03T09:34:35.212Z,46.45
2023-05-03T09:37:02.916Z,46.41
2023-05-03T09:39:30.494Z,46.16
2023-05-03T09:41:58.398Z,46.04
2023-05-03T09:44:44.221Z,46.07
2023-05-03T09:47:12.352Z,46.05
2023-05-03T09:49:39.976Z,45.90
2023-05-03T09:52:08.853Z,45.61
2023-05-03T09:54:36.909Z,45.66
2023-05-03T09:57:07.095Z,46.02
2023-05-03T09:59:37.483Z,45.93
2023-05-03T10:02:08.291Z,45.20
2023-05-03T10:04:48.138Z,45.13
2023-05-03T10:07:20.163Z,44.79
2023-05-03T10:09:48.799Z,44.94
2023-05-03T10:12:19.360Z,44.00
2023-05-03T10:14:49.973Z,44.39
2023-05-03T10:17:46.164Z,44.18
2023-05-03T10:20:33.512Z,43.38
2023-05-03T10:23:13.743Z,43.92
2023-05-03T10:26:07.270Z,44.12
2023-05-03T10:28:34.903Z,43.93
2023-05-03T10:31:03.094Z,43.60
2023-05-03T10:33:37.238Z,43.21
2023-05-03T10:36:07.362Z,43.65
2023-05-03T10:38:36.748Z,43.20
2023-05-03T10:41:06.649Z,43.15
2023-05-03T10:43:34.095Z,43.18
2023-05-03T10:46:03.281Z,43.25
2023-05-03T10:48:32.545Z,43.08
2023-05-03T10:51:32.843Z,43.39
2023-05-03T10:54:00.452Z,43.03
2023-05-03T10:56:28.002Z,42.78
2023-05-03T10:58:58.570Z,42.81
2023-05-03T11:01:27.858Z,42.59
2023-05-03T11:04:19.676Z,42.20
2023-05-03T11:06:51.054Z,42.13
2023-05-03T11:09:18.746Z,42.35
2023-05-03T11:11:46.350Z,41.33
2023-05-03T11:14:14.032Z,41.55
2023-05-03T11:16:47.796Z,41.46
2023-05-03T11:19:16.192Z,41.27
2023-05-03T11:21:46.273Z,40.92
2023-05-03T11:24:15.502Z,40.54
2023-05-03T11:26:43.083Z,40.59
2023-05-03T11:29:11.784Z,41.00
2023-05-03T11:31:42.864Z,40.72
2023-05-03T11:34:12.356Z,40.32
2023-05-03T11:36:42.121Z,40.06
2023-05-03T11:39:11.600Z,39.60
2023-05-03T11:41:39.265Z,39.41
2023-05-03T11:44:15.879Z,39.30
2023-05-03T11:46:46.801Z,38.61
2023-05-03T11:49:18.764Z,39.15
2023-05-03T11:51:49.888Z,38.65
2023-05-03T11:54:26.068Z,38.27
2023-05-03T11:56:59.533Z,38.27
2023-05-03T11:59:40.982Z,38.59
2023-05-03T12:02:12.604Z,38.25
2023-05-03T12:04:43.203Z,37.82
2023-05-03T12:07:13.192Z,37.14
2023-05-03T12:09:43.568Z,37.48
2023-05-03T12:12:24.086Z,37.42
2023-05-03T12:15:03.726Z,36.90
2023-05-03T12:17:44.437Z,36.80
2023-05-03T12:22:57.949Z,36.36
2023-05-03T12:25:28.220Z,35.72
2023-05-03T12:28:18.805Z,35.79
2023-05-03T12:30:47.790Z,35.52
2023-05-03T12:33:17.021Z,35.71
2023-05-03T12:35:47.722Z,36.02
2023-05-03T12:38:17.459Z,36.27
2023-05-03T12:40:46.808Z,34.77
2023-05-03T12:43:14.842Z,35.06
2023-05-03T12:45:46.484Z,34.69
2023-05-03T12:48:17.732Z,34.63
2023-05-03T12:50:45.889Z,34.65
2023-05-03T12:53:16.913Z,33.68
2023-05-03T12:55:50.679Z,33.65
2023-05-03T13:01:15.785Z,33.03
2023-05-03T13:03:43.425Z,33.11
2023-05-03T13:06:14.643Z,33.88
2023-05-03T13:11:13.359Z,33.50
2023-05-03T13:13:40.993Z,33.47
2023-05-03T13:16:09.276Z,32.48
2023-05-03T13:18:37.114Z,33.21
2023-05-03T13:21:05.012Z,32.81
2023-05-03T13:23:33.910Z,32.22
2023-05-03T13:26:01.392Z,32.17
2023-05-03T13:28:28.965Z,32.21
2023-05-03T13:30:57.094Z,31.44
2023-05-03T13:33:25.109Z,31.50
2023-05-03T13:35:52.658Z,31.71
2023-05-03T13:38:20.656Z,31.38
2023-05-03T13:40:48.177Z,31.10
2023-05-03T13:43:15.789Z,30.99
2023-05-03T13:45:43.282Z,30.81
2023-05-03T13:48:18.774Z,31.17
2023-05-03T13:50:46.902Z,31.23
2023-05-03T13:53:14.860Z,31.59
2023-05-03T13:55:42.415Z,31.78
2023-05-03T13:58:09.915Z,31.46
2023-05-03T14:00:37.442Z,31.76
2023-05-03T14:03:06.468Z,31.46
2023-05-03T14:05:34.784Z,31.29
2023-05-03T14:08:02.265Z,30.68
2023-05-03T14:10:29.760Z,30.61
2023-05-03T14:12:57.929Z,30.52
2023-05-03T14:15:25.663Z,30.51
2023-05-03T14:17:54.131Z,29.87
2023-05-03T14:20:23.777Z,29.56
2023-05-03T14:22:51.319Z,29.29
2023-05-03T14:25:19.440Z,29.04
2023-05-03T14:27:47.232Z,28.46
2023-05-03T14:30:15.348Z,28.15
2023-05-03T14:32:42.862Z,28.72
2023-05-03T14:35:10.537Z,27.70
2023-05-03T14:37:38.117Z,27.69
2023-05-03T14:40:07.843Z,27.63
2023-05-03T14:42:35.668Z,28.04
2023-05-03T14:45:04.017Z,28.44
2023-05-03T14:47:32.134Z,28.53
2023-05-03T14:49:59.912Z,28.03
2023-05-03T14:52:27.781Z,28.18
2023-05-03T14:54:55.360Z,27.87
2023-05-03T14:57:22.865Z,27.70
2023-05-03T14:59:50.653Z,27.64
2023-05-03T15:02:19.152Z,27.80
2023-05-03T15:04:46.833Z,27.44
2023-05-03T15:07:15.375Z,26.81
2023-05-03T15:09:44.700Z,26.15
2023-05-03T15:12:12.177Z,26.46
2023-05-03T15:14:39.747Z,26.13
2023-05-03T15:17:07.252Z,26.22
2023-05-03T15:19:34.783Z,25.91
2023-05-03T15:22:02.337Z,25.29
2023-05-03T15:24:29.906Z,25.28
2023-05-03T15:26:57.380Z,25.19
2023-05-03T15:29:24.904Z,25.33
2023-05-03T15:31:52.783Z,25.51
2023-05-03T15:34:20.482Z,25.46
2023-05-03T15:36:48.035Z,24.88
2023-05-03T15:39:15.839Z,24.63
2023-05-03T15:41:45.426Z,25.01
2023-05-03T15:44:14.796Z,25.59
2023-05-03T15:46:43.117Z,25.49
2023-05-03T15:49:11.945Z,24.95
2023-05-03T15:51:39.469Z,25.21
2023-05-03T15:54:07.099Z,25.89
2023-05-03T15:56:34.675Z,26.29
2023-05-03T15:59:02.182Z,25.93
2023-05-03T16:01:29.744Z,26.42
2023-05-03T16:03:57.290Z,26.90
2023-05-03T16:06:24.860Z,27.08
2023-05-03T16:08:52.543Z,26.94
2023-05-03T16:11:20.122Z,27.15
2023-05-03T16:13:47.898Z,27.44
2023-05-03T16:16:15.571Z,27.80
2023-05-03T16:18:43.102Z,27.83
2023-05-03T16:21:11.315Z,27.48
2023-05-03T16:23:38.833Z,27.54
2023-05-03T16:26:14.299Z,27.94
2023-05-03T16:28:41.841Z,28.24
2023-05-03T16:31:09.401Z,28.09
2023-05-03T16:33:36.929Z,28.86
2023-05-03T16:36:04.898Z,29.16
2023-05-03T16:38:32.431Z,29.14
2023-05-03T16:41:01.636Z,28.92
2023-05-03T16:43:30.147Z,29.16
2023-05-03T16:46:01.491Z,29.26
2023-05-03T16:48:33.170Z,29.58
2023-05-03T16:51:00.896Z,29.26
2023-05-03T16:53:28.496Z,29.20
2023-05-03T16:55:56.508Z,29.31
2023-05-03T16:58:24.041Z,29.57
2023-05-03T17:00:51.988Z,29.82
2023-05-03T17:03:19.622Z,29.63
2023-05-03T17:05:47.347Z,30.21
2023-05-03T17:08:15.371Z,29.67
2023-05-03T17:10:43.216Z,30.23
2023-05-03T17:13:11.093Z,30.14
2023-05-03T17:15:39.003Z,30.36
2023-05-03T17:18:06.789Z,30.33
2023-05-03T17:20:35.161Z,30.62
2023-05-03T17:23:02.664Z,30.24
2023-05-03T17:25:30.429Z,30.75
2023-05-03T17:27:58.479Z,30.87
2023-05-03T17:30:26.214Z,31.00
2023-05-03T17:32:54.209Z,30.75
2023-05-03T17:35:21.820Z,31.47
2023-05-03T17:37:49.510Z,31.32
2023-05-03T17:40:17.094Z,31.50
2023-05-03T17:42:46.832Z,31.39
2023-05-03T17:45:14.621Z,31.87
2023-05-03T17:47:42.196Z,31.70
2023-05-03T17:50:11.724Z,31.89
2023-05-03T17:52:40.532Z,31.66
2023-05-03T17:55:08.636Z,32.21
2023-05-03T17:57:37.358Z,31.96
2023-05-03T18:00:06.934Z,32.29
2023-05-03T18:02:34.758Z,31.96
2023-05-03T18:05:03.191Z,32.60
2023-05-03T18:07:30.677Z,32.53
2023-05-03T18:09:59.545Z,32.43
2023-05-03T18:12:30.455Z,32.42
2023-05-03T18:15:00.654Z,32.49
2023-05-03T18:17:29.667Z,32.64
2023-05-03T18:19:57.231Z,32.79
2023-05-03T18:22:27.414Z,33.05
2023-05-03T18:24:55.286Z,33.13
2023-05-03T18:27:22.777Z,33.15
2023-05-03T18:29:50.653Z,33.09
2023-05-03T18:32:18.166Z,33.73
2023-05-03T18:34:45.707Z,33.65
2023-05-03T18:37:13.449Z,33.81
2023-05-03T18:39:40.967Z,34.34
2023-05-03T18:42:08.531Z,34.19
2023-05-03T18:44:36.103Z,34.57
2023-05-03T18:47:03.693Z,34.87
2023-05-03T18:49:31.242Z,35.05
2023-05-03T18:51:58.938Z,35.27
2023-05-03T18:54:26.494Z,35.29
2023-05-03T18:56:54.087Z,35.39
2023-05-03T18:59:21.590Z,35.76
2023-05-03T19:01:50.163Z,35.81
2023-05-03T19:04:17.800Z,35.86
2023-05-03T19:06:45.541Z,36.10
2023-05-03T19:09:13.603Z,36.09
2023-05-03T19:11:42.716Z,36.24
2023-05-03T19:14:10.360Z,36.31
2023-05-03T19:16:38.010Z,36.52
2023-05-03T19:19:05.493Z,36.66
2023-05-03T19:21:34.842Z,36.65
2023-05-03T19:24:02.524Z,36.83
2023-05-03T19:26:30.051Z,36.99
2023-05-03T19:28:57.529Z,36.93
2023-05-03T19:31:25.080Z,37.05
2023-05-03T19:33:52.727Z,37.23
2023-05-03T19:36:20.226Z,37.13
2023-05-03T19:38:47.756Z,37.35
2023-05-03T19:41:15.249Z,37.78
2023-05-03T19:43:42.784Z,37.62
2023-05-03T19:46:10.721Z,37.55
2023-05-03T19:48:38.277Z,37.94
2023-05-03T19:51:05.818Z,38.04
2023-05-03T19:53:33.806Z,37.87
2023-05-03T19:56:02.809Z,37.97
2023-05-03T19:58:31.924Z,38.05
2023-05-03T20:00:59.643Z,38.10
2023-05-03T20:03:27.647Z,38.45
2023-05-03T20:05:55.411Z,38.47
2023-05-03T20:08:24.129Z,38.57
2023-05-03T20:10:51.772Z,38.50
2023-05-03T20:13:19.414Z,38.71
2023-05-03T20:15:47.055Z,38.87
2023-05-03T20:18:15.211Z,38.89
2023-05-03T20:20:43.344Z,39.00
2023-05-03T20:23:11.845Z,39.11
2023-05-03T20:25:39.390Z,39.25
2023-05-03T20:28:06.974Z,39.15
2023-05-03T20:30:34.736Z,39.11
2023-05-03T20:33:02.497Z,39.19
2023-05-03T20:35:30.230Z,39.30
2023-05-03T20:37:57.782Z,39.55
2023-05-03T20:40:25.411Z,39.49
2023-05-03T20:42:52.897Z,39.80
2023-05-03T20:45:20.416Z,39.52
2023-05-03T20:47:48.021Z,39.55
2023-05-03T20:50:15.548Z,39.51
2023-05-03T20:52:43.173Z,39.83
2023-05-03T20:55:10.700Z,40.10
2023-05-03T20:57:42.062Z,40.16
2023-05-03T21:00:15.700Z,40.05
2023-05-03T21:02:43.504Z,39.43
2023-05-03T21:05:11.297Z,40.05
2023-05-03T21:07:39.110Z,40.10
2023-05-03T21:10:08.069Z,40.27
2023-05-03T21:12:35.773Z,40.20
2023-05-03T21:15:03.558Z,40.28
2023-05-03T21:17:31.098Z,40.39
2023-05-03T21:19:58.629Z,40.43
2023-05-03T21:22:26.796Z,40.45
2023-05-03T21:24:54.757Z,40.38
2023-05-03T21:27:22.334Z,40.53
2023-05-03T21:29:49.846Z,40.51
2023-05-03T21:32:17.441Z,40.56
2023-05-03T21:34:44.977Z,40.43
2023-05-03T21:37:12.478Z,40.26
2023-05-03T21:39:40.020Z,40.45
2023-05-03T21:42:07.525Z,40.45
2023-05-03T21:44:35.105Z,40.71
2023-05-03T21:47:03.058Z,40.58
2023-05-03T21:49:30.583Z,40.73
2023-05-03T21:51:58.152Z,41.08
2023-05-03T21:54:26.836Z,41.11
2023-05-03T21:56:54.306Z,41.09
2023-05-03T21:59:21.843Z,41.01
2023-05-03T22:01:50.186Z,41.18
2023-05-03T22:04:17.792Z,41.19
2023-05-03T22:06:45.612Z,41.19
2023-05-03T22:09:13.147Z,40.97
2023-05-03T22:11:41.357Z,41.10
2023-05-03T22:14:09.248Z,41.08
2023-05-03T22:16:42.157Z,41.23
2023-05-03T22:19:10.063Z,41.25
2023-05-03T22:21:37.555Z,41.35
2023-05-03T22:24:05.465Z,41.34
2023-05-03T22:26:33.034Z,41.41
2023-05-03T22:29:00.985Z,41.50
2023-05-03T22:31:30.145Z,41.39
2023-05-03T22:33:57.819Z,41.45
2023-05-03T22:36:25.427Z,41.62
2023-05-03T22:39:00.547Z,41.39
2023-05-03T22:41:28.096Z,41.61
2023-05-03T22:43:55.616Z,41.47
2023-05-03T22:46:23.911Z,41.56
2023-05-03T22:48:51.858Z,41.64
2023-05-03T22:51:19.354Z,41.70
2023-05-03T22:53:46.862Z,41.79
2023-05-03T22:56:14.438Z,41.81
2023-05-03T22:58:42.092Z,41.97
2023-05-03T23:01:12.482Z,41.77
2023-05-03T23:03:41.056Z,42.01
2023-05-03T23:06:08.814Z,41.95
2023-05-03T23:08:36.377Z,41.93
2023-05-03T23:11:04.228Z,42.11
2023-05-03T23:13:31.758Z,42.18
2023-05-03T23:15:59.748Z,42.08
2023-05-03T23:18:27.413Z,42.18
2023-05-03T23:20:55.246Z,42.21
2023-05-03T23:23:23.656Z,42.20
2023-05-03T23:25:52.078Z,42.20
2023-05-03T23:28:20.849Z,42.17
2023-05-03T23:30:49.304Z,42.28
2023-05-03T23:33:17.219Z,42.13
2023-05-03T23:35:45.054Z,42.19
2023-05-03T23:38:12.593Z,41.95
2023-05-03T23:40:40.153Z,41.86
2023-05-03T23:43:07.708Z,41.95
2023-05-03T23:45:35.564Z,42.08
2023-05-03T23:48:03.137Z,42.08
2023-05-03T23:50:30.731Z,42.05
2023-05-03T23:52:58.766Z,42.27
2023-05-03T23:55:26.273Z,42.16
2023-05-03T23:57:53.785Z,42.43
